createdAt,value
2023-12-18T00:00:42.861Z,53.58
2023-12-18T00:03:51.210Z,52.84
2023-12-18T00:06:57.798Z,51.83
2023-12-18T00:10:04.512Z,52.72
2023-12-18T00:13:11.303Z,52.50
2023-12-18T00:16:17.831Z,52.96
2023-12-18T00:19:26.050Z,54.37
2023-12-18T00:22:32.969Z,53.68
2023-12-18T00:25:39.671Z,53.57
2023-12-18T00:28:46.520Z,54.88
2023-12-18T00:31:53.232Z,52.93
2023-12-18T00:35:01.420Z,52.54
2023-12-18T00:38:07.996Z,54.00
2023-12-18T00:41:14.934Z,52.81
2023-12-18T00:44:21.768Z,52.84
2023-12-18T00:47:28.080Z,53.35
2023-12-18T00:50:35.989Z,53.36
2023-12-18T00:53:42.734Z,52.76
2023-12-18T00:56:49.497Z,52.54
2023-12-18T00:59:55.938Z,53.51
2023-12-18T01:03:02.256Z,54.12
2023-12-18T01:06:10.429Z,53.52
2023-12-18T01:09:16.772Z,52.38
2023-12-18T01:12:23.207Z,54.95
2023-12-18T01:15:30.030Z,54.98
2023-12-18T01:18:36.869Z,55.30
2023-12-18T01:21:45.310Z,54.15
2023-12-18T01:24:52.000Z,53.82
2023-12-18T01:27:58.466Z,52.70
2023-12-18T01:31:05.370Z,53.05
2023-12-18T01:34:12.383Z,55.33
2023-12-18T01:37:20.829Z,55.30
2023-12-18T01:40:27.756Z,54.08
2023-12-18T01:43:34.443Z,54.41
2023-12-18T01:46:41.787Z,55.77
2023-12-18T01:49:50.448Z,55.96
2023-12-18T01:52:58.716Z,57.04
2023-12-18T01:56:07.015Z,54.64
2023-12-18T01:59:16.212Z,53.12
2023-12-18T02:02:23.364Z,53.96
2023-12-18T02:05:29.788Z,54.01
2023-12-18T02:08:38.220Z,51.84
2023-12-18T02:11:46.551Z,52.60
2023-12-18T02:14:54.252Z,53.04
2023-12-18T02:18:00.713Z,52.75
2023-12-18T02:21:07.439Z,53.29
2023-12-18T02:24:15.488Z,53.36
2023-12-18T02:27:22.759Z,53.03
2023-12-18T02:30:29.414Z,53.34
2023-12-18T02:33:36.258Z,54.67
2023-12-18T02:36:43.286Z,54.80
2023-12-18T02:39:51.360Z,54.27
2023-12-18T02:42:58.453Z,55.31
2023-12-18T02:46:05.654Z,54.42
2023-12-18T02:49:12.574Z,53.52
2023-12-18T02:52:19.333Z,52.41
2023-12-18T02:55:27.195Z,53.29
2023-12-18T02:58:33.616Z,57.04
2023-12-18T03:01:40.382Z,55.83
2023-12-18T03:04:47.366Z,54.29
2023-12-18T03:07:54.240Z,57.64
2023-12-18T03:11:02.196Z,57.26
2023-12-18T03:14:08.718Z,54.59
2023-12-18T03:17:15.579Z,54.00
2023-12-18T03:20:22.983Z,52.84
2023-12-18T03:23:30.145Z,54.79
2023-12-18T03:26:38.553Z,54.30
2023-12-18T03:29:45.047Z,55.82
2023-12-18T03:32:51.705Z,54.08
2023-12-18T03:35:58.416Z,52.56
2023-12-18T03:39:05.631Z,53.71
2023-12-18T03:42:14.203Z,52.96
2023-12-18T03:45:21.102Z,52.83
2023-12-18T03:48:28.690Z,52.21
2023-12-18T03:51:35.388Z,53.36
2023-12-18T03:54:42.197Z,52.79
2023-12-18T03:57:50.296Z,52.44
2023-12-18T04:00:57.099Z,51.22
2023-12-18T04:04:04.808Z,51.89
2023-12-18T04:07:11.285Z,51.10
2023-12-18T04:10:17.800Z,52.77
2023-12-18T04:13:25.974Z,53.84
2023-12-18T04:16:33.161Z,54.66
2023-12-18T04:19:39.881Z,51.80
2023-12-18T04:22:46.316Z,50.99
2023-12-18T04:25:52.767Z,50.97
2023-12-18T04:29:00.918Z,50.46
2023-12-18T04:32:07.704Z,51.67
2023-12-18T04:35:14.392Z,50.98
2023-12-18T04:38:21.161Z,51.75
2023-12-18T04:41:27.617Z,52.69
2023-12-18T04:44:35.429Z,51.93
2023-12-18T04:47:42.617Z,51.82
2023-12-18T04:50:49.541Z,52.65
2023-12-18T04:53:56.161Z,53.92
2023-12-18T04:57:02.482Z,55.29
2023-12-18T05:00:11.479Z,53.07
2023-12-18T05:03:18.764Z,52.20
2023-12-18T05:06:28.241Z,54.01
2023-12-18T05:09:34.864Z,53.05
2023-12-18T05:12:41.755Z,54.32
2023-12-18T05:15:52.862Z,55.76
2023-12-18T05:18:59.713Z,54.27
2023-12-18T05:22:06.178Z,53.87
2023-12-18T05:25:13.777Z,55.13
2023-12-18T05:28:21.243Z,54.94
2023-12-18T05:31:29.616Z,51.11
2023-12-18T05:34:36.409Z,51.81
2023-12-18T05:37:43.590Z,52.63
2023-12-18T05:40:50.376Z,51.55
2023-12-18T05:43:56.940Z,50.96
2023-12-18T05:47:05.025Z,50.74
2023-12-18T05:50:11.776Z,50.79
2023-12-18T05:53:18.573Z,53.40
2023-12-18T05:56:25.285Z,52.61
2023-12-18T05:59:32.193Z,55.66
2023-12-18T06:02:40.921Z,51.71
2023-12-18T06:05:48.298Z,53.84
2023-12-18T06:08:55.557Z,53.08
2023-12-18T06:12:02.262Z,52.50
2023-12-18T06:15:10.587Z,50.59
2023-12-18T06:18:19.161Z,50.59
2023-12-18T06:21:26.115Z,51.48
2023-12-18T06:24:32.957Z,51.55
2023-12-18T06:27:39.537Z,50.17
2023-12-18T06:30:46.561Z,51.08
2023-12-18T06:33:55.117Z,49.28
2023-12-18T06:37:01.838Z,50.17
2023-12-18T06:40:09.813Z,50.54
2023-12-18T06:43:16.427Z,49.88
2023-12-18T06:46:23.453Z,49.80
2023-12-18T06:49:31.767Z,49.84
2023-12-18T06:52:39.491Z,49.55
2023-12-18T06:55:46.319Z,52.78
2023-12-18T06:58:53.016Z,51.21
2023-12-18T07:01:59.899Z,50.52
2023-12-18T07:05:08.520Z,55.09
2023-12-18T07:08:15.094Z,52.41
2023-12-18T07:11:21.985Z,51.86
2023-12-18T07:14:28.499Z,48.52
2023-12-18T07:17:35.345Z,53.57
2023-12-18T07:20:44.972Z,50.84
2023-12-18T07:23:51.899Z,49.05
2023-12-18T07:26:58.632Z,48.75
2023-12-18T07:30:06.038Z,50.23
2023-12-18T07:33:12.872Z,49.23
2023-12-18T07:36:20.975Z,50.09
2023-12-18T07:39:28.076Z,49.73
2023-12-18T07:42:34.719Z,47.99
2023-12-18T07:45:41.428Z,48.06
2023-12-18T07:48:50.068Z,47.45
2023-12-18T07:51:58.633Z,48.53
2023-12-18T07:55:05.968Z,49.87
2023-12-18T07:58:12.863Z,48.30
2023-12-18T08:01:21.346Z,48.85
2023-12-18T08:04:28.560Z,48.69
2023-12-18T08:07:36.704Z,50.69
2023-12-18T08:10:44.291Z,51.86
2023-12-18T08:13:50.921Z,51.38
2023-12-18T08:16:57.461Z,48.63
2023-12-18T08:20:04.019Z,51.57
2023-12-18T08:23:12.341Z,48.90
2023-12-18T08:26:19.317Z,48.58
2023-12-18T08:29:26.849Z,50.04
2023-12-18T08:32:33.403Z,48.33
2023-12-18T08:35:40.301Z,50.59
2023-12-18T08:38:48.545Z,49.88
2023-12-18T08:41:55.229Z,50.93
2023-12-18T08:45:01.764Z,49.30
2023-12-18T08:48:09.743Z,48.96
2023-12-18T08:51:18.070Z,50.51
2023-12-18T08:54:26.250Z,53.43
2023-12-18T08:57:32.874Z,49.98
2023-12-18T09:00:39.779Z,48.84
2023-12-18T09:03:46.730Z,50.74
2023-12-18T09:06:53.218Z,49.91
2023-12-18T09:10:01.020Z,47.61
2023-12-18T09:13:07.527Z,50.04
2023-12-18T09:16:14.284Z,48.96
2023-12-18T09:19:20.589Z,47.74
2023-12-18T09:22:27.302Z,49.08
2023-12-18T09:25:35.224Z,48.41
2023-12-18T09:28:41.910Z,49.00
2023-12-18T09:31:49.047Z,48.48
2023-12-18T09:34:55.710Z,48.67
2023-12-18T09:38:02.732Z,49.96
2023-12-18T09:41:10.889Z,49.21
2023-12-18T09:44:17.903Z,49.44
2023-12-18T09:47:24.779Z,48.98
2023-12-18T09:50:31.639Z,47.03
2023-12-18T09:53:38.185Z,49.27
2023-12-18T09:56:49.600Z,48.96
2023-12-18T09:59:56.228Z,48.20
2023-12-18T10:03:03.369Z,49.33
2023-12-18T10:06:10.993Z,49.66
2023-12-18T10:09:18.436Z,50.54
2023-12-18T10:12:26.836Z,48.42
2023-12-18T10:15:35.037Z,49.25
2023-12-18T10:18:42.265Z,48.19
2023-12-18T10:21:50.652Z,47.57
2023-12-18T10:25:00.140Z,47.80
2023-12-18T10:28:08.784Z,46.61
2023-12-18T10:31:15.422Z,47.95
2023-12-18T10:34:23.796Z,48.94
2023-12-18T10:37:33.174Z,47.32
2023-12-18T10:40:40.575Z,46.92
2023-12-18T10:43:50.540Z,45.67
2023-12-18T10:46:59.617Z,49.90
2023-12-18T10:50:07.667Z,45.32
2023-12-18T10:53:18.548Z,46.52
2023-12-18T10:56:26.385Z,48.72
2023-12-18T10:59:36.669Z,48.45
2023-12-18T11:02:45.382Z,48.04
2023-12-18T11:05:53.729Z,48.69
2023-12-18T11:09:00.545Z,47.67
2023-12-18T11:12:08.360Z,47.30
2023-12-18T11:15:30.751Z,47.94
2023-12-18T11:18:52.025Z,46.95
2023-12-18T11:21:58.534Z,48.74
2023-12-18T11:25:06.746Z,48.67
2023-12-18T11:28:13.353Z,47.50
2023-12-18T11:31:22.367Z,47.03
2023-12-18T11:34:29.354Z,47.51
2023-12-18T11:37:43.997Z,46.22
2023-12-18T11:40:51.653Z,47.35
2023-12-18T11:43:58.832Z,46.99
2023-12-18T11:47:08.965Z,49.72
2023-12-18T11:50:16.042Z,50.88
2023-12-18T11:53:35.191Z,48.86
2023-12-18T11:56:43.986Z,49.25
2023-12-18T11:59:50.738Z,49.75
2023-12-18T12:03:00.284Z,49.46
2023-12-18T12:06:08.929Z,48.29
2023-12-18T12:09:15.855Z,48.27
2023-12-18T12:12:22.760Z,49.54
2023-12-18T12:15:29.818Z,48.12
2023-12-18T12:18:47.125Z,48.65
2023-12-18T12:21:53.622Z,48.43
2023-12-18T12:25:00.870Z,48.24
2023-12-18T12:28:07.549Z,48.78
2023-12-18T12:31:14.091Z,48.08
2023-12-18T12:34:22.332Z,48.04
2023-12-18T12:37:29.193Z,46.09
2023-12-18T12:40:40.238Z,49.02
2023-12-18T12:43:47.036Z,50.68
2023-12-18T12:46:53.900Z,48.56
2023-12-18T12:50:06.391Z,49.48
2023-12-18T12:53:13.212Z,47.88
2023-12-18T12:56:20.118Z,47.75
2023-12-18T12:59:27.000Z,48.58
2023-12-18T13:02:34.111Z,48.40
2023-12-18T13:05:43.414Z,48.03
2023-12-18T13:08:50.803Z,49.84
2023-12-18T13:11:57.391Z,49.20
2023-12-18T13:15:05.398Z,50.11
2023-12-18T13:18:12.619Z,52.57
2023-12-18T13:21:21.306Z,49.17
2023-12-18T13:24:28.322Z,50.62
2023-12-18T13:27:35.376Z,49.42
2023-12-18T13:30:41.905Z,49.35
2023-12-18T13:33:48.928Z,50.25
2023-12-18T13:36:57.506Z,51.35
2023-12-18T13:40:04.879Z,50.05
2023-12-18T13:43:11.471Z,51.86
2023-12-18T13:46:18.697Z,51.49
2023-12-18T13:49:25.824Z,51.04
2023-12-18T13:52:33.943Z,49.70
2023-12-18T13:55:40.435Z,50.54
2023-12-18T13:58:47.333Z,51.66
2023-12-18T14:01:54.031Z,52.10
2023-12-18T14:05:02.667Z,51.94
2023-12-18T14:08:10.931Z,51.94
2023-12-18T14:11:17.869Z,53.31
2023-12-18T14:14:24.280Z,51.75
2023-12-18T14:17:30.770Z,53.28
2023-12-18T14:20:37.610Z,52.04
2023-12-18T14:23:45.665Z,51.54
2023-12-18T14:26:52.262Z,51.17
2023-12-18T14:29:58.728Z,52.50
2023-12-18T14:33:05.881Z,50.69
2023-12-18T14:36:12.899Z,52.35
2023-12-18T14:39:21.100Z,50.34
2023-12-18T14:42:27.515Z,52.22
2023-12-18T14:45:34.073Z,51.28
2023-12-18T14:48:40.917Z,52.90
2023-12-18T14:51:47.602Z,54.16
2023-12-18T14:54:56.128Z,57.40
2023-12-18T14:58:04.802Z,58.58
2023-12-18T15:01:11.404Z,59.03
2023-12-18T15:04:26.353Z,59.80
2023-12-18T15:07:35.858Z,56.54
2023-12-18T15:10:43.962Z,54.48
2023-12-18T15:13:51.162Z,55.07
2023-12-18T15:17:02.014Z,54.25
2023-12-18T15:20:11.409Z,54.71
2023-12-18T15:23:18.368Z,52.01
2023-12-18T15:26:26.742Z,51.98
2023-12-18T15:29:33.308Z,54.10
2023-12-18T15:32:42.951Z,55.57
2023-12-18T15:35:50.105Z,55.48
2023-12-18T15:38:57.934Z,55.88
2023-12-18T15:42:06.286Z,54.88
2023-12-18T15:45:13.602Z,55.41
2023-12-18T15:48:20.657Z,56.56
2023-12-18T15:51:27.768Z,56.00
2023-12-18T15:54:34.466Z,54.20
2023-12-18T15:57:42.664Z,55.23
2023-12-18T16:00:49.575Z,57.24
2023-12-18T16:03:57.527Z,54.34
2023-12-18T16:07:06.005Z,57.29
2023-12-18T16:10:12.813Z,57.42
2023-12-18T16:13:20.784Z,55.60
2023-12-18T16:16:27.226Z,56.04
2023-12-18T16:19:34.874Z,53.14
2023-12-18T16:22:41.910Z,54.89
2023-12-18T16:25:48.882Z,52.25
2023-12-18T16:28:57.220Z,54.78
2023-12-18T16:32:08.073Z,55.67
2023-12-18T16:35:14.805Z,55.10
2023-12-18T16:38:21.833Z,55.43
2023-12-18T16:41:32.486Z,53.11
2023-12-18T16:44:40.839Z,53.03
2023-12-18T16:47:47.713Z,52.95
2023-12-18T16:50:55.744Z,52.47
2023-12-18T16:54:02.304Z,54.52
2023-12-18T16:57:08.516Z,57.89
2023-12-18T17:00:17.197Z,55.97
2023-12-18T17:03:24.084Z,55.94
2023-12-18T17:06:30.847Z,53.73
2023-12-18T17:09:37.266Z,53.74
2023-12-18T17:12:44.709Z,54.80
2023-12-18T17:15:52.890Z,54.91
2023-12-18T17:18:59.595Z,55.02
2023-12-18T17:22:06.732Z,54.21
2023-12-18T17:25:12.925Z,55.07
2023-12-18T17:28:19.711Z,55.84
2023-12-18T17:31:31.528Z,57.13
2023-12-18T17:34:39.260Z,54.22
2023-12-18T17:37:46.046Z,55.08
2023-12-18T17:40:53.031Z,57.00
2023-12-18T17:44:00.016Z,54.36
2023-12-18T17:47:08.094Z,53.51
2023-12-18T17:50:14.808Z,54.59
2023-12-18T17:53:23.026Z,55.19
2023-12-18T17:56:29.589Z,54.04
2023-12-18T17:59:36.019Z,54.06
2023-12-18T18:02:44.148Z,54.94
2023-12-18T18:05:51.088Z,56.71
2023-12-18T18:08:58.107Z,56.27
2023-12-18T18:12:05.606Z,57.97
2023-12-18T18:15:12.258Z,58.20
2023-12-18T18:18:21.327Z,58.65
2023-12-18T18:21:28.368Z,58.22
2023-12-18T18:24:34.915Z,57.05
2023-12-18T18:27:41.969Z,54.90
2023-12-18T18:30:50.460Z,54.76
2023-12-18T18:34:01.397Z,55.40
2023-12-18T18:37:07.993Z,53.93
2023-12-18T18:40:15.162Z,53.56
2023-12-18T18:43:21.967Z,54.61
2023-12-18T18:46:29.316Z,53.98
2023-12-18T18:49:37.126Z,55.83
2023-12-18T18:52:43.952Z,54.08
2023-12-18T18:55:50.653Z,56.39
2023-12-18T18:58:57.596Z,57.63
2023-12-18T19:02:04.257Z,57.49
2023-12-18T19:05:12.752Z,58.91
2023-12-18T19:08:22.011Z,55.12
2023-12-18T19:11:28.498Z,54.50
2023-12-18T19:14:34.673Z,54.64
2023-12-18T19:17:43.663Z,54.80
2023-12-18T19:20:54.163Z,54.21
2023-12-18T19:24:00.495Z,54.46
2023-12-18T19:27:07.074Z,54.74
2023-12-18T19:30:14.919Z,57.52
2023-12-18T19:33:21.954Z,57.96
2023-12-18T19:36:30.539Z,58.60
2023-12-18T19:39:37.110Z,57.16
2023-12-18T19:42:44.010Z,56.81
2023-12-18T19:45:50.656Z,55.05
2023-12-18T19:48:56.984Z,54.42
2023-12-18T19:52:06.054Z,55.37
2023-12-18T19:55:12.912Z,56.48
2023-12-18T19:58:19.822Z,55.18
2023-12-18T20:01:26.202Z,55.66
2023-12-18T20:04:33.029Z,56.09
2023-12-18T20:07:41.573Z,57.19
2023-12-18T20:10:48.766Z,57.50
2023-12-18T20:13:55.431Z,56.74
2023-12-18T20:17:02.212Z,57.77
2023-12-18T20:20:09.814Z,56.26
2023-12-18T20:23:18.051Z,58.71
2023-12-18T20:26:24.477Z,56.83
2023-12-18T20:29:33.869Z,57.26
2023-12-18T20:32:42.329Z,57.14
2023-12-18T20:35:48.957Z,58.55
2023-12-18T20:38:56.935Z,57.38
2023-12-18T20:42:03.441Z,57.35
2023-12-18T20:45:10.285Z,56.03
2023-12-18T20:51:26.486Z,58.24
2023-12-18T20:54:34.483Z,57.11
2023-12-18T20:57:41.797Z,56.18
2023-12-18T21:00:48.699Z,58.56
2023-12-18T21:03:55.785Z,58.77
2023-12-18T21:07:02.464Z,57.68
2023-12-18T21:10:13.336Z,56.64
2023-12-18T21:13:20.204Z,57.53
2023-12-18T21:16:26.967Z,56.86
2023-12-18T21:19:33.364Z,57.51
2023-12-18T21:22:40.334Z,57.62
2023-12-18T21:25:48.818Z,56.43
2023-12-18T21:28:55.392Z,58.05
2023-12-18T21:32:01.767Z,59.87
2023-12-18T21:35:10.437Z,58.62
2023-12-18T21:38:16.967Z,56.38
2023-12-18T21:41:25.277Z,59.87
2023-12-18T21:44:32.308Z,60.75
2023-12-18T21:47:40.755Z,61.15
2023-12-18T21:50:47.604Z,63.15
2023-12-18T21:53:54.094Z,59.92
2023-12-18T21:57:01.756Z,60.26
2023-12-18T22:00:09.761Z,59.26
2023-12-18T22:03:18.577Z,58.21
2023-12-18T22:06:25.125Z,56.60
2023-12-18T22:09:31.767Z,57.60
2023-12-18T22:12:39.900Z,58.27
2023-12-18T22:15:46.620Z,57.35
2023-12-18T22:18:53.336Z,58.83
2023-12-18T22:22:01.054Z,57.43
2023-12-18T22:25:08.841Z,56.20
2023-12-18T22:28:17.344Z,57.53
2023-12-18T22:31:23.930Z,56.87
2023-12-18T22:34:32.190Z,58.26
2023-12-18T22:37:38.873Z,65.17
2023-12-18T22:40:45.281Z,60.35
2023-12-18T22:43:53.581Z,63.00
2023-12-18T22:46:59.833Z,60.14
2023-12-18T22:50:07.514Z,61.91
2023-12-18T22:53:17.548Z,58.53
2023-12-18T22:56:26.417Z,58.89
2023-12-18T22:59:34.453Z,58.65
2023-12-18T23:02:40.960Z,57.85
2023-12-18T23:05:47.896Z,59.09
2023-12-18T23:08:54.212Z,58.96
2023-12-18T23:12:00.864Z,62.56
2023-12-18T23:15:11.035Z,57.50
2023-12-18T23:18:18.155Z,58.27
2023-12-18T23:21:24.540Z,57.59
2023-12-18T23:24:30.986Z,59.77
2023-12-18T23:27:37.241Z,58.08
2023-12-18T23:30:45.548Z,57.34
2023-12-18T23:33:52.647Z,59.92
2023-12-18T23:36:59.238Z,59.49
2023-12-18T23:40:06.558Z,57.59
2023-12-18T23:43:14.655Z,57.44
2023-12-18T23:46:22.960Z,57.80
2023-12-18T23:49:29.499Z,56.39
2023-12-18T23:52:36.147Z,56.78
2023-12-18T23:55:43.357Z,58.85
2023-12-18T23:58:50.036Z,58.89
